createdAt,value
2019-04-07T00:00:12.714Z,29.3
2019-04-07T00:01:03.276Z,29.2
2019-04-07T00:01:51.305Z,29.3
2019-04-07T00:02:41.032Z,29.3
2019-04-07T00:03:31.011Z,29.2
2019-04-07T00:04:20.337Z,29.3
2019-04-07T00:05:23.977Z,29.2
2019-04-07T00:05:59.775Z,29.2
2019-04-07T00:06:50.245Z,29.2
2019-04-07T00:07:42.830Z,29.2
2019-04-07T00:08:32.887Z,29.2
2019-04-07T00:09:23.192Z,29.2
2019-04-07T00:10:09.825Z,29.2
2019-04-07T00:11:00.198Z,29.2
2019-04-07T00:11:53.475Z,29.2
2019-04-07T00:12:40.430Z,29.2
2019-04-07T00:13:31.478Z,29.2
2019-04-07T00:14:20.665Z,29.2
2019-04-07T00:15:13.839Z,29.2
2019-04-07T00:16:02.384Z,29.2
2019-04-07T00:16:51.025Z,29.2
2019-04-07T00:17:40.306Z,29.1
2019-04-07T00:18:32.040Z,29.2
2019-04-07T00:19:23.097Z,29.1
2019-04-07T00:20:12.990Z,29.1
2019-04-07T00:21:02.910Z,29.1
2019-04-07T00:21:51.595Z,29.1
2019-04-07T00:22:42.057Z,29.1
2019-04-07T00:23:31.937Z,29.1
2019-04-07T00:24:21.876Z,29.1
2019-04-07T00:25:11.031Z,29.1
2019-04-07T00:26:02.682Z,29.1
2019-04-07T00:26:51.246Z,29.1
2019-04-07T00:27:41.634Z,29.1
2019-04-07T00:28:31.218Z,29.1
2019-04-07T00:29:21.563Z,29.1
2019-04-07T00:30:11.955Z,29.1
2019-04-07T00:31:00.899Z,29.1
2019-04-07T00:31:51.544Z,29.1
2019-04-07T00:32:40.656Z,29.1
2019-04-07T00:33:34.131Z,29.1
2019-04-07T00:34:24.776Z,29.1
2019-04-07T00:35:35.296Z,29.1
2019-04-07T00:36:05.186Z,29.1
2019-04-07T00:36:52.686Z,29.1
2019-04-07T00:37:44.866Z,29.1
2019-04-07T00:38:34.661Z,29.1
2019-04-07T00:39:24.736Z,29.1
2019-04-07T00:40:15.381Z,29.1
2019-04-07T00:41:05.620Z,29.1
2019-04-07T00:41:55.047Z,29
2019-04-07T00:42:44.412Z,29.1
2019-04-07T00:43:35.188Z,29.1
2019-04-07T00:44:26.232Z,29
2019-04-07T00:45:14.105Z,29
2019-04-07T00:46:05.620Z,29
2019-04-07T00:46:56.098Z,29
2019-04-07T00:47:46.614Z,29
2019-04-07T00:48:34.460Z,29
2019-04-07T00:49:23.205Z,29
2019-04-07T00:50:16.814Z,29
2019-04-07T00:51:04.487Z,29
2019-04-07T00:51:56.286Z,29
2019-04-07T00:52:45.825Z,29
2019-04-07T00:54:26.884Z,29
2019-04-07T00:55:15.837Z,29
2019-04-07T00:56:06.045Z,29
2019-04-07T00:56:53.285Z,29
2019-04-07T00:57:45.613Z,29
2019-04-07T00:58:36.918Z,29
2019-04-07T00:59:25.896Z,28.9
2019-04-07T01:00:17.956Z,28.9
2019-04-07T01:01:05.297Z,29
2019-04-07T01:01:56.735Z,28.9
2019-04-07T01:02:47.460Z,28.9
2019-04-07T01:03:35.859Z,28.9
2019-04-07T01:04:26.452Z,28.9
2019-04-07T01:05:15.862Z,28.9
2019-04-07T01:06:05.035Z,28.9
2019-04-07T01:06:55.986Z,28.9
2019-04-07T01:07:47.802Z,28.9
2019-04-07T01:08:38.178Z,28.9
2019-04-07T01:09:26.113Z,28.9
2019-04-07T01:10:17.389Z,28.9
2019-04-07T01:11:05.552Z,28.9
2019-04-07T01:11:58.389Z,28.9
2019-04-07T01:12:46.757Z,28.9
2019-04-07T01:13:36.488Z,28.9
2019-04-07T01:14:25.592Z,28.9
2019-04-07T01:15:16.604Z,28.9
2019-04-07T01:16:06.559Z,28.9
2019-04-07T01:16:57.138Z,28.9
2019-04-07T01:17:47.248Z,28.9
2019-04-07T01:18:38.517Z,28.9
2019-04-07T01:19:28.855Z,28.9
2019-04-07T01:20:17.256Z,28.9
2019-04-07T01:21:06.323Z,28.9
2019-04-07T01:21:57.338Z,28.9
2019-04-07T01:22:48.517Z,28.9
2019-04-07T01:23:36.951Z,28.9
2019-04-07T01:24:29.827Z,28.9
2019-04-07T01:25:16.971Z,28.9
2019-04-07T01:26:05.346Z,28.9
2019-04-07T01:26:57.381Z,28.9
2019-04-07T01:27:47.626Z,28.9
2019-04-07T01:28:36.288Z,28.9
2019-04-07T01:29:27.148Z,28.9
2019-04-07T01:30:19.195Z,28.8
2019-04-07T01:31:07.067Z,28.8
2019-04-07T01:31:57.433Z,28.8
2019-04-07T01:32:46.605Z,28.8
2019-04-07T01:33:37.732Z,28.8
2019-04-07T01:34:28.886Z,28.8
2019-04-07T01:35:20.214Z,28.8
2019-04-07T01:36:08.259Z,28.8
2019-04-07T01:36:57.622Z,28.8
2019-04-07T01:37:49.470Z,28.8
2019-04-07T01:38:38.555Z,28.8
2019-04-07T01:39:28.354Z,28.8
2019-04-07T01:40:18.940Z,28.8
2019-04-07T01:41:09.815Z,28.8
2019-04-07T01:41:58.600Z,28.8
2019-04-07T01:42:48.665Z,28.8
2019-04-07T01:43:39.324Z,28.8
2019-04-07T01:44:30.866Z,28.8
2019-04-07T01:45:20.560Z,28.8
2019-04-07T01:46:08.885Z,28.8
2019-04-07T01:46:56.920Z,28.8
2019-04-07T01:47:47.442Z,28.8
2019-04-07T01:48:38.841Z,28.8
2019-04-07T01:49:27.981Z,28.8
2019-04-07T01:50:20.016Z,28.8
2019-04-07T01:51:08.026Z,28.8
2019-04-07T01:51:58.303Z,28.8
2019-04-07T01:52:49.180Z,28.8
2019-04-07T01:53:38.589Z,28.8
2019-04-07T01:54:30.826Z,28.8
2019-04-07T01:55:19.069Z,28.8
2019-04-07T01:56:09.157Z,28.8
2019-04-07T01:56:58.079Z,28.8
2019-04-07T01:57:51.753Z,28.7
2019-04-07T01:58:41.637Z,28.7
2019-04-07T01:59:31.022Z,28.7
2019-04-07T02:00:18.892Z,28.7
2019-04-07T02:01:09.176Z,28.7
2019-04-07T02:02:02.061Z,28.7
2019-04-07T02:02:50.919Z,28.7
2019-04-07T02:03:42.917Z,28.7
2019-04-07T02:04:30.231Z,28.7
2019-04-07T02:05:19.866Z,28.7
2019-04-07T02:06:12.631Z,28.7
2019-04-07T02:07:00.747Z,28.7
2019-04-07T02:07:51.203Z,28.7
2019-04-07T02:08:40.787Z,28.7
2019-04-07T02:09:33.628Z,28.7
2019-04-07T02:10:21.389Z,28.6
2019-04-07T02:11:10.294Z,28.7
2019-04-07T02:12:01.748Z,28.7
2019-04-07T02:12:53.097Z,28.6
2019-04-07T02:13:42.906Z,28.6
2019-04-07T02:14:31.765Z,28.6
2019-04-07T02:15:21.685Z,28.6
2019-04-07T02:16:10.295Z,28.7
2019-04-07T02:17:02.831Z,28.6
2019-04-07T02:17:52.753Z,28.6
2019-04-07T02:18:41.568Z,28.6
2019-04-07T02:19:32.761Z,28.6
2019-04-07T02:20:23.218Z,28.6
2019-04-07T02:21:14.169Z,28.6
2019-04-07T02:22:01.307Z,28.6
2019-04-07T02:22:52.030Z,28.6
2019-04-07T02:23:41.378Z,28.6
2019-04-07T02:24:34.409Z,28.6
2019-04-07T02:25:22.883Z,28.6
2019-04-07T02:26:12.390Z,28.6
2019-04-07T02:27:01.822Z,28.6
2019-04-07T02:27:53.110Z,28.6
2019-04-07T02:28:41.775Z,28.6
2019-04-07T02:29:33.414Z,28.6
2019-04-07T02:30:24.921Z,28.6
2019-04-07T02:31:12.277Z,28.6
2019-04-07T02:32:05.390Z,28.6
2019-04-07T02:32:56.405Z,28.6
2019-04-07T02:33:44.283Z,28.6
2019-04-07T02:34:32.736Z,28.6
2019-04-07T02:35:24.610Z,28.6
2019-04-07T02:36:43.168Z,28.6
2019-04-07T02:37:06.604Z,28.6
2019-04-07T02:37:54.591Z,28.6
2019-04-07T02:38:44.088Z,28.6
2019-04-07T02:39:35.111Z,28.6
2019-04-07T02:40:25.160Z,28.6
2019-04-07T02:41:15.878Z,28.6
2019-04-07T02:42:03.179Z,28.5
2019-04-07T02:42:54.322Z,28.6
2019-04-07T02:43:41.257Z,28.5
2019-04-07T02:44:35.555Z,28.5
2019-04-07T02:45:25.008Z,28.5
2019-04-07T02:46:14.817Z,28.5
2019-04-07T02:47:03.778Z,28.5
2019-04-07T02:47:53.982Z,28.5
2019-04-07T02:48:44.439Z,28.5
2019-04-07T02:49:36.139Z,28.5
2019-04-07T02:50:24.597Z,28.5
2019-04-07T02:51:13.507Z,28.5
2019-04-07T02:52:03.856Z,28.5
2019-04-07T02:52:57.710Z,28.5
2019-04-07T02:53:47.457Z,28.5
2019-04-07T02:54:33.304Z,28.5
2019-04-07T02:55:23.786Z,28.5
2019-04-07T02:56:16.476Z,28.5
2019-04-07T02:57:05.456Z,28.5
2019-04-07T02:57:56.010Z,28.5
2019-04-07T02:58:43.072Z,28.5
2019-04-07T02:59:35.337Z,28.5
2019-04-07T03:00:26.584Z,28.4
2019-04-07T03:01:15.280Z,28.4
2019-04-07T03:02:05.838Z,28.4
2019-04-07T03:02:57.963Z,28.4
2019-04-07T03:03:48.250Z,28.4
2019-04-07T03:07:30.576Z,28.4
2019-04-07T03:08:06.349Z,28.4
2019-04-07T03:08:57.711Z,28.4
2019-04-07T03:10:00.192Z,28.4
2019-04-07T03:10:36.451Z,28.4
2019-04-07T03:11:31.300Z,28.4
2019-04-07T03:12:14.883Z,28.4
2019-04-07T03:13:09.748Z,28.4
2019-04-07T03:13:57.151Z,28.4
2019-04-07T03:14:46.046Z,28.4
2019-04-07T03:15:36.314Z,28.4
2019-04-07T03:16:27.832Z,28.4
2019-04-07T03:17:17.119Z,28.4
2019-04-07T03:18:06.868Z,28.4
2019-04-07T03:18:56.601Z,28.4
2019-04-07T03:19:47.224Z,28.4
2019-04-07T03:20:39.210Z,28.4
2019-04-07T03:21:27.673Z,28.4
2019-04-07T03:22:18.097Z,28.4
2019-04-07T03:23:09.338Z,28.4
2019-04-07T03:23:59.660Z,28.4
2019-04-07T03:24:46.836Z,28.4
2019-04-07T03:25:39.736Z,28.3
2019-04-07T03:26:29.064Z,28.4
2019-04-07T03:27:18.254Z,28.4
2019-04-07T03:28:10.231Z,28.3
2019-04-07T03:28:59.398Z,28.3
2019-04-07T03:30:08.996Z,28.3
2019-04-07T03:31:08.020Z,28.3
2019-04-07T03:32:02.570Z,28.3
2019-04-07T03:33:32.179Z,28.3
2019-04-07T03:34:42.515Z,28.3
2019-04-07T03:35:53.808Z,28.3
2019-04-07T03:37:56.989Z,28.3
2019-04-07T03:38:16.310Z,28.3
2019-04-07T03:39:05.377Z,28.3
2019-04-07T03:40:10.127Z,28.3
2019-04-07T03:40:44.504Z,28.3
2019-04-07T03:41:49.709Z,28.3
2019-04-07T03:42:24.369Z,28.3
2019-04-07T03:43:13.967Z,28.3
2019-04-07T03:44:09.804Z,28.3
2019-04-07T03:44:54.644Z,28.3
2019-04-07T03:45:44.116Z,28.3
2019-04-07T03:46:36.432Z,28.3
2019-04-07T03:47:26.906Z,28.3
2019-04-07T03:48:17.584Z,28.3
2019-04-07T03:49:04.727Z,28.3
2019-04-07T03:49:55.591Z,28.3
2019-04-07T03:50:45.166Z,28.3
2019-04-07T03:51:34.909Z,28.3
2019-04-07T03:52:29.187Z,28.3
2019-04-07T03:53:14.468Z,28.3
2019-04-07T03:54:05.051Z,28.3
2019-04-07T03:54:55.024Z,28.3
2019-04-07T03:56:01.783Z,28.3
2019-04-07T03:56:37.221Z,28.3
2019-04-07T03:57:25.216Z,28.3
2019-04-07T03:58:19.500Z,28.3
2019-04-07T03:59:06.093Z,28.3
2019-04-07T03:59:55.963Z,28.3
2019-04-07T04:00:47.547Z,28.2
2019-04-07T04:01:38.851Z,28.2
2019-04-07T04:02:26.967Z,28.2
2019-04-07T04:03:17.971Z,28.2
2019-04-07T04:04:07.316Z,28.2
2019-04-07T04:04:56.114Z,28.2
2019-04-07T04:05:47.695Z,28.2
2019-04-07T04:06:37.609Z,28.2
2019-04-07T04:07:47.917Z,28.2
2019-04-07T04:08:16.477Z,28.2
2019-04-07T04:09:06.428Z,28.2
2019-04-07T04:09:56.423Z,28.2
2019-04-07T04:10:48.120Z,28.2
2019-04-07T04:11:36.981Z,28.2
2019-04-07T04:12:27.466Z,28.2
2019-04-07T04:13:17.977Z,28.2
2019-04-07T04:14:06.571Z,28.2
2019-04-07T04:14:57.368Z,28.2
2019-04-07T04:15:48.480Z,28.1
2019-04-07T04:16:36.759Z,28.1
2019-04-07T04:17:28.862Z,28.1
2019-04-07T04:18:18.286Z,28.2
2019-04-07T04:19:11.027Z,28.1
2019-04-07T04:19:57.344Z,28.1
2019-04-07T04:20:48.555Z,28.1
2019-04-07T04:21:38.709Z,28.1
2019-04-07T04:22:30.673Z,28.1
2019-04-07T04:23:21.957Z,28.1
2019-04-07T04:24:10.358Z,28.1
2019-04-07T04:24:59.443Z,28.1
2019-04-07T04:25:50.856Z,28.1
2019-04-07T04:26:38.172Z,28.1
2019-04-07T04:27:28.694Z,28.1
2019-04-07T04:28:17.947Z,28.1
2019-04-07T04:29:11.042Z,28.1
2019-04-07T04:30:03.585Z,28.1
2019-04-07T04:30:48.879Z,28.1
2019-04-07T04:31:37.645Z,28.1
2019-04-07T04:32:29.202Z,28.1
2019-04-07T04:33:16.457Z,28.1
2019-04-07T04:34:08.235Z,28.1
2019-04-07T04:35:00.902Z,28.1
2019-04-07T04:35:49.630Z,28.1
2019-04-07T04:36:56.287Z,28.1
2019-04-07T04:38:01.665Z,28.1
2019-04-07T04:38:20.618Z,28
2019-04-07T04:39:12.017Z,28.1
2019-04-07T04:40:02.567Z,28.1
2019-04-07T04:40:51.205Z,28
2019-04-07T04:41:42.472Z,28
2019-04-07T04:42:33.699Z,28
2019-04-07T04:43:21.478Z,27.9
2019-04-07T04:44:11.192Z,27.9
2019-04-07T04:45:04.057Z,27.9
2019-04-07T04:45:51.000Z,27.9
2019-04-07T04:46:43.223Z,27.9
2019-04-07T04:47:30.846Z,27.9
2019-04-07T04:48:21.163Z,27.9
2019-04-07T04:49:11.792Z,27.9
2019-04-07T04:50:00.511Z,27.9
2019-04-07T04:51:48.540Z,27.9
2019-04-07T06:05:19.652Z,27.4
2019-04-07T06:06:06.702Z,27.4
2019-04-07T06:07:04.595Z,27.4
2019-04-07T06:07:47.883Z,27.4
2019-04-07T06:08:55.574Z,27.4
2019-04-07T06:09:36.188Z,27.4
2019-04-07T06:10:16.599Z,27.3
2019-04-07T06:11:10.391Z,27.3
2019-04-07T06:11:56.543Z,27.4
2019-04-07T06:12:54.075Z,27.4
2019-04-07T06:13:39.082Z,27.3
2019-04-07T06:14:27.820Z,27.3
2019-04-07T06:15:24.592Z,27.3
2019-04-07T06:16:06.375Z,27.3
2019-04-07T06:17:02.090Z,27.4
2019-04-07T06:17:47.832Z,27.3
2019-04-07T06:18:43.288Z,27.3
2019-04-07T06:19:26.554Z,27.3
2019-04-07T06:20:23.536Z,27.3
2019-04-07T06:21:08.177Z,27.3
2019-04-07T06:21:56.952Z,27.3
2019-04-07T06:22:56.372Z,27.3
2019-04-07T06:23:40.726Z,27.3
2019-04-07T06:24:38.377Z,27.3
2019-04-07T06:25:19.220Z,27.3
2019-04-07T06:26:17.197Z,27.3
2019-04-07T06:26:57.492Z,27.3
2019-04-07T06:27:54.797Z,27.3
2019-04-07T06:28:35.896Z,27.2
2019-04-07T06:29:32.189Z,27.2
2019-04-07T06:30:18.667Z,27.2
2019-04-07T06:31:11.760Z,27.2
2019-04-07T06:32:05.116Z,27.2
2019-04-07T06:32:51.554Z,27.2
2019-04-07T06:33:43.704Z,27.2
2019-04-07T06:34:28.060Z,27.2
2019-04-07T06:35:23.463Z,27.2
2019-04-07T06:36:08.242Z,27.1
2019-04-07T06:37:05.620Z,27.2
2019-04-07T06:37:48.188Z,27.1
2019-04-07T06:38:59.336Z,27.1
2019-04-07T06:39:32.201Z,27.1
2019-04-07T06:40:25.239Z,27.1
2019-04-07T06:41:11.443Z,27.1
2019-04-07T06:42:03.294Z,27.1
2019-04-07T06:42:51.973Z,27.1
2019-04-07T06:43:44.099Z,27.1
2019-04-07T06:44:31.342Z,27.1
2019-04-07T06:45:25.009Z,27.1
2019-04-07T06:46:09.228Z,27
2019-04-07T06:47:07.637Z,27
2019-04-07T06:47:46.865Z,27
2019-04-07T06:48:43.833Z,27
2019-04-07T06:49:33.763Z,27
2019-04-07T06:50:24.074Z,26.9
2019-04-07T06:51:11.170Z,26.9
2019-04-07T06:52:07.095Z,26.9
2019-04-07T06:52:49.311Z,26.9
2019-04-07T06:53:36.939Z,26.9
2019-04-07T06:54:31.990Z,26.9
2019-04-07T06:55:17.888Z,26.9
2019-04-07T06:56:12.562Z,26.9
2019-04-07T06:57:02.017Z,26.9
2019-04-07T06:57:50.180Z,26.9
2019-04-07T06:58:46.955Z,26.9
2019-04-07T06:59:29.862Z,26.9
2019-04-07T07:00:26.825Z,26.9
2019-04-07T07:01:11.327Z,26.8
2019-04-07T07:02:03.109Z,26.8
2019-04-07T07:02:51.475Z,26.8
2019-04-07T07:05:30.039Z,26.8
2019-04-07T07:06:11.055Z,26.8
2019-04-07T07:07:18.297Z,26.8
2019-04-07T07:07:58.497Z,26.8
2019-04-07T07:09:03.991Z,26.8
2019-04-07T07:09:41.603Z,26.8
2019-04-07T07:10:50.748Z,26.8
2019-04-07T07:11:46.118Z,26.8
2019-04-07T07:12:05.039Z,26.7
2019-04-07T07:12:59.033Z,26.7
2019-04-07T07:13:59.565Z,26.6
2019-04-07T07:14:58.248Z,26.7
2019-04-07T07:15:44.896Z,26.6
2019-04-07T07:16:29.852Z,26.6
2019-04-07T07:17:24.466Z,26.6
2019-04-07T07:18:12.984Z,26.6
2019-04-07T07:19:07.441Z,26.6
2019-04-07T07:20:08.243Z,26.5
2019-04-07T07:20:41.461Z,26.5
2019-04-07T07:21:39.533Z,26.5
2019-04-07T07:22:24.589Z,26.4
2019-04-07T07:23:21.089Z,26.4
2019-04-07T07:24:00.118Z,26.4
2019-04-07T07:25:09.934Z,26.3
2019-04-07T07:25:43.046Z,26.3
2019-04-07T07:26:38.563Z,26.2
2019-04-07T07:27:19.561Z,26.2
2019-04-07T07:28:13.842Z,26.1
2019-04-07T07:29:19.054Z,26.1
2019-04-07T07:29:59.248Z,26
2019-04-07T07:30:38.108Z,26
2019-04-07T07:31:51.815Z,25.9
2019-04-07T07:32:20.419Z,25.9
2019-04-07T07:33:16.328Z,25.8
2019-04-07T07:33:59.269Z,25.8
2019-04-07T07:34:50.795Z,25.8
2019-04-07T07:35:37.656Z,25.7
2019-04-07T07:36:32.859Z,25.6
2019-04-07T07:37:22.912Z,25.6
2019-04-07T07:38:16.909Z,25.5
2019-04-07T10:06:20.214Z,36.1
2019-04-07T10:07:01.431Z,36.1
2019-04-07T10:07:58.968Z,36.1
2019-04-07T10:08:46.681Z,36.1
2019-04-07T10:09:33.771Z,36.2
2019-04-07T10:10:30.091Z,36.3
2019-04-07T10:11:17.089Z,36.3
2019-04-07T10:12:04.795Z,36.4
2019-04-07T10:12:55.415Z,36.4
2019-04-07T10:13:45.300Z,36.5
2019-04-07T10:14:35.016Z,36.6
2019-04-07T10:15:25.842Z,36.7
2019-04-07T10:16:21.141Z,36.8
2019-04-07T10:17:04.164Z,36.9
2019-04-07T10:17:54.218Z,37.1
2019-04-07T10:18:44.511Z,37.1
2019-04-07T10:19:37.965Z,37.3
2019-04-07T10:20:32.560Z,37.4
2019-04-07T10:21:15.640Z,37.6
2019-04-07T10:22:09.536Z,37.7
2019-04-07T10:22:57.454Z,37.8
2019-04-07T10:23:49.291Z,37.9
2019-04-07T10:24:37.797Z,38
2019-04-07T10:25:31.605Z,38.1
2019-04-07T10:26:17.884Z,38.3
2019-04-07T10:27:05.892Z,38.5
2019-04-07T10:27:57.631Z,39
2019-04-07T10:28:56.532Z,39.8
2019-04-07T10:29:38.148Z,40.6
2019-04-07T10:30:28.210Z,41
2019-04-07T10:31:21.470Z,41.4
2019-04-07T10:32:09.448Z,41.4
2019-04-07T10:32:58.420Z,41.4
2019-04-07T10:33:47.098Z,41.6
2019-04-07T10:34:36.352Z,41.8
2019-04-07T10:35:26.027Z,42.1
2019-04-07T10:36:17.547Z,42.5
2019-04-07T10:37:13.210Z,42.9
2019-04-07T10:38:03.835Z,43.1
2019-04-07T10:38:50.814Z,43.2
2019-04-07T10:39:38.115Z,43.4
2019-04-07T10:40:32.127Z,44.1
2019-04-07T10:41:20.736Z,45.2
2019-04-07T10:42:11.350Z,46.1
2019-04-07T10:43:04.083Z,47.1
2019-04-07T10:43:50.339Z,48.1
2019-04-07T10:44:39.975Z,48.9
2019-04-07T10:45:26.947Z,49.2
2019-04-07T10:46:20.359Z,49.1
2019-04-07T10:47:09.544Z,49
2019-04-07T10:48:01.305Z,48.6
2019-04-07T10:48:51.018Z,48
2019-04-07T10:49:40.626Z,47.9
2019-04-07T10:50:30.184Z,48.8
2019-04-07T10:51:19.714Z,49.4
2019-04-07T10:52:09.219Z,50.1
2019-04-07T10:53:00.904Z,50.5
2019-04-07T10:53:51.078Z,50.6
2019-04-07T10:54:38.158Z,50.8
2019-04-07T10:55:30.344Z,51
2019-04-07T10:56:18.758Z,51.3
2019-04-07T10:57:11.102Z,51.4
2019-04-07T10:58:01.240Z,51.5
2019-04-07T10:58:50.518Z,51.8
2019-04-07T10:59:38.080Z,52.1
2019-04-07T11:01:22.163Z,52.7
2019-04-07T11:02:11.776Z,52.6
2019-04-07T11:03:08.362Z,52.3
2019-04-07T11:04:41.076Z,51.7
2019-04-07T11:05:31.450Z,51.3
2019-04-07T11:06:24.385Z,50.8
2019-04-07T11:07:11.533Z,50.1
2019-04-07T11:08:00.948Z,49.5
2019-04-07T11:08:51.775Z,48.9
2019-04-07T11:09:38.985Z,48.6
2019-04-07T11:10:48.985Z,48.3
2019-04-07T11:11:22.242Z,48.1
2019-04-07T11:12:11.500Z,48.1
2019-04-07T11:13:04.133Z,47.9
2019-04-07T11:13:51.933Z,47.6
2019-04-07T11:14:41.595Z,47.4
2019-04-07T11:15:30.624Z,47.2
2019-04-07T11:16:20.515Z,47.1
2019-04-07T11:17:13.989Z,47
2019-04-07T11:18:01.620Z,47.1
2019-04-07T11:18:51.763Z,47.1
2019-04-07T11:19:44.501Z,47.1
2019-04-07T11:20:30.488Z,47
2019-04-07T11:21:20.217Z,46.9
2019-04-07T11:22:12.312Z,46.8
2019-04-07T11:23:01.949Z,46.6
2019-04-07T11:23:51.063Z,46.5
2019-04-07T11:24:43.370Z,46.4
2019-04-07T11:25:31.600Z,46.3
2019-04-07T11:26:21.908Z,46.1
2019-04-07T11:27:13.607Z,45.9
2019-04-07T11:28:03.153Z,45.7
2019-04-07T11:28:51.272Z,45.5
2019-04-07T11:29:46.705Z,45.3
2019-04-07T11:30:31.939Z,45.1
2019-04-07T11:31:23.716Z,45
2019-04-07T11:32:12.547Z,44.9
2019-04-07T11:33:03.957Z,44.8
2019-04-07T11:33:50.796Z,44.7
2019-04-07T11:34:41.388Z,44.7
2019-04-07T11:35:38.410Z,44.7
2019-04-07T11:36:30.997Z,44.9
2019-04-07T11:37:18.923Z,45.1
2019-04-07T11:38:03.264Z,45.3
2019-04-07T11:38:53.840Z,45.3
2019-04-07T11:39:41.323Z,45.1
2019-04-07T11:40:54.477Z,44.9
2019-04-07T11:41:33.291Z,44.5
2019-04-07T11:42:15.267Z,44.3
2019-04-07T11:43:02.211Z,44.1
2019-04-07T11:43:51.716Z,43.9
2019-04-07T11:44:42.763Z,43.8
2019-04-07T11:45:32.394Z,43.7
2019-04-07T11:46:24.846Z,43.5
2019-04-07T11:47:12.435Z,43.3
2019-04-07T11:48:03.360Z,43.1
2019-04-07T11:48:53.396Z,42.9
2019-04-07T11:49:51.139Z,42.8
2019-04-07T11:50:34.799Z,42.6
2019-04-07T11:51:24.825Z,42.4
2019-04-07T11:52:13.634Z,42.3
2019-04-07T11:53:05.001Z,42.2
2019-04-07T11:53:53.717Z,42
2019-04-07T11:54:45.470Z,41.9
2019-04-07T11:55:37.690Z,41.8
2019-04-07T11:56:25.033Z,41.6
2019-04-07T11:57:15.354Z,41.6
2019-04-07T11:58:43.045Z,41.4
2019-04-07T11:59:02.522Z,41.3
2019-04-07T11:59:52.346Z,41.3
2019-04-07T12:00:48.789Z,41.1
2019-04-07T12:01:33.835Z,41.1
2019-04-07T12:02:29.881Z,40.9
2019-04-07T12:03:13.408Z,40.9
2019-04-07T12:04:07.878Z,40.8
2019-04-07T12:06:29.742Z,40.7
2019-04-07T12:07:05.642Z,40.6
2019-04-07T12:08:06.070Z,40.5
2019-04-07T12:08:47.784Z,40.4
2019-04-07T12:09:37.022Z,40.4
2019-04-07T12:10:25.679Z,40.4
2019-04-07T12:11:20.424Z,40.3
2019-04-07T12:12:07.901Z,40.3
2019-04-07T12:12:56.904Z,40.3
2019-04-07T12:13:52.810Z,40.2
2019-04-07T12:14:37.373Z,40.1
2019-04-07T12:15:36.924Z,40.1
2019-04-07T12:16:16.670Z,40.1
2019-04-07T12:17:19.923Z,40
2019-04-07T12:17:57.282Z,40
2019-04-07T12:18:53.631Z,39.9
2019-04-07T12:19:38.700Z,39.9
2019-04-07T12:20:38.106Z,39.9
2019-04-07T12:21:40.419Z,39.9
2019-04-07T12:22:17.164Z,39.9
2019-04-07T12:22:59.297Z,39.9
2019-04-07T12:23:55.428Z,39.8
2019-04-07T12:24:51.677Z,39.8
2019-04-07T12:25:29.270Z,39.8
2019-04-07T12:26:18.044Z,39.8
2019-04-07T12:27:17.239Z,39.8
2019-04-07T12:27:58.564Z,39.7
2019-04-07T12:28:56.014Z,39.7
2019-04-07T12:29:36.523Z,39.6
2019-04-07T12:30:31.449Z,39.6
2019-04-07T12:31:19.570Z,39.6
2019-04-07T12:32:08.466Z,39.6
2019-04-07T12:32:58.595Z,39.6
2019-04-07T12:33:49.161Z,39.5
2019-04-07T12:34:37.501Z,39.5
2019-04-07T12:35:35.248Z,39.5
2019-04-07T12:36:30.621Z,39.4
2019-04-07T12:37:17.480Z,39.4
2019-04-07T12:38:03.967Z,39.4
2019-04-07T12:38:54.156Z,39.4
2019-04-07T12:39:43.219Z,39.4
2019-04-07T12:40:34.750Z,39.3
2019-04-07T12:41:39.049Z,39.3
2019-04-07T12:42:18.307Z,39.3
2019-04-07T12:43:00.237Z,39.2
2019-04-07T12:43:57.709Z,39.2
2019-04-07T12:44:39.784Z,39.1
2019-04-07T12:45:29.887Z,39.1
2019-04-07T12:46:21.089Z,39.1
2019-04-07T12:47:09.158Z,39
2019-04-07T12:47:59.448Z,38.9
2019-04-07T12:48:50.027Z,38.9
2019-04-07T12:49:50.890Z,38.9
2019-04-07T12:50:28.332Z,38.8
2019-04-07T12:51:25.150Z,38.8
2019-04-07T12:52:08.557Z,38.8
2019-04-07T12:53:07.147Z,38.8
2019-04-07T12:53:50.615Z,38.7
2019-04-07T12:54:48.072Z,38.7
2019-04-07T12:55:31.508Z,38.6
2019-04-07T12:56:20.266Z,38.6
2019-04-07T12:57:16.841Z,38.6
2019-04-07T12:58:00.936Z,38.6
2019-04-07T12:58:57.642Z,38.6
2019-04-07T12:59:41.690Z,38.5
2019-04-07T13:01:20.189Z,38.5
2019-04-07T13:01:49.563Z,38.4
2019-04-07T13:02:32.322Z,38.4
2019-04-07T13:03:22.339Z,38.4
2019-04-07T13:04:25.536Z,38.4
2019-04-07T13:05:09.639Z,38.4
2019-04-07T13:05:50.906Z,38.3
2019-04-07T13:06:49.589Z,38.3
2019-04-07T13:07:32.501Z,38.3
2019-04-07T13:08:27.366Z,38.2
2019-04-07T13:09:10.329Z,38.2
2019-04-07T13:10:09.071Z,38.1
2019-04-07T13:10:52.128Z,38.1
2019-04-07T13:12:00.318Z,38
2019-04-07T13:12:36.487Z,38
2019-04-07T13:13:21.285Z,37.9
2019-04-07T13:14:18.288Z,37.9
2019-04-07T13:15:00.056Z,37.9
2019-04-07T13:15:58.903Z,37.9
2019-04-07T13:16:41.304Z,37.8
2019-04-07T13:17:42.091Z,37.9
2019-04-07T13:18:20.789Z,37.8
2019-04-07T13:19:21.849Z,37.8
2019-04-07T13:20:05.050Z,37.7
2019-04-07T13:20:56.706Z,37.7
2019-04-07T13:21:44.182Z,37.6
2019-04-07T13:22:37.717Z,37.6
2019-04-07T13:23:23.882Z,37.6
2019-04-07T13:24:52.673Z,37.6
2019-04-07T13:25:25.126Z,37.5
2019-04-07T13:26:09.743Z,37.5
2019-04-07T13:27:06.465Z,37.5
2019-04-07T13:27:49.040Z,37.5
2019-04-07T13:28:38.872Z,37.5
2019-04-07T13:29:27.943Z,37.5
2019-04-07T13:30:18.137Z,37.4
2019-04-07T13:31:07.347Z,37.4
2019-04-07T13:32:03.294Z,37.4
2019-04-07T13:33:09.284Z,37.4
2019-04-07T13:33:41.332Z,37.4
2019-04-07T13:34:41.300Z,37.4
2019-04-07T13:35:14.100Z,37.4
2019-04-07T13:36:10.375Z,37.4
2019-04-07T13:37:03.439Z,37.4
2019-04-07T13:37:52.224Z,37.3
2019-04-07T13:38:38.337Z,37.3
2019-04-07T13:39:28.032Z,37.1
2019-04-07T13:40:23.928Z,36.8
2019-04-07T13:41:09.402Z,36.5
2019-04-07T13:42:06.297Z,36.2
2019-04-07T13:42:52.083Z,35.9
2019-04-07T13:43:45.225Z,35.6
2019-04-07T13:44:29.431Z,35.4
2019-04-07T13:45:25.725Z,35.2
2019-04-07T13:46:41.153Z,34.9
2019-04-07T13:46:59.367Z,34.6
2019-04-07T13:47:54.583Z,34.6
2019-04-07T13:48:39.952Z,34.3
2019-04-07T13:49:41.907Z,34.1
2019-04-07T13:50:20.692Z,33.9
2019-04-07T13:51:08.607Z,33.8
2019-04-07T13:53:04.540Z,33.5
2019-04-07T13:54:02.125Z,33.3
2019-04-07T13:54:37.213Z,33.1
2019-04-07T13:55:22.831Z,33.1
2019-04-07T13:56:18.626Z,32.9
2019-04-07T13:57:00.654Z,32.8
2019-04-07T13:57:49.335Z,32.6
2019-04-07T13:58:43.307Z,32.5
2019-04-07T13:59:30.623Z,32.4
2019-04-07T14:00:27.365Z,32.3
2019-04-07T14:01:12.678Z,32.3
2019-04-07T14:02:15.083Z,32.2
2019-04-07T14:02:51.081Z,32.1
2019-04-07T14:03:42.749Z,32.1
2019-04-07T14:04:46.761Z,32
2019-04-07T14:07:22.900Z,31.9
2019-04-07T14:08:07.065Z,31.9
2019-04-07T14:08:57.144Z,31.8
2019-04-07T14:09:46.866Z,31.8
2019-04-07T14:10:42.695Z,31.8
2019-04-07T14:11:27.377Z,31.8
2019-04-07T14:12:22.697Z,31.8
2019-04-07T14:13:12.427Z,31.8
2019-04-07T14:13:57.198Z,31.8
2019-04-07T14:14:47.198Z,31.8
2019-04-07T16:07:23.590Z,32
2019-04-07T16:08:06.295Z,32.2
2019-04-07T16:09:28.307Z,32.3
2019-04-07T16:10:13.262Z,32.5
2019-04-07T16:11:06.889Z,32.6
2019-04-07T16:12:04.754Z,32.6
2019-04-07T16:13:07.182Z,32.8
2019-04-07T16:13:36.861Z,32.9
2019-04-07T16:14:27.403Z,32.9
2019-04-07T16:15:21.587Z,33.1
2019-04-07T16:16:06.320Z,33.1
2019-04-07T16:17:12.594Z,33.3
2019-04-07T16:17:52.779Z,33.4
2019-04-07T16:18:43.276Z,33.4
2019-04-07T16:20:01.635Z,33.6
2019-04-07T16:20:51.670Z,33.8
2019-04-07T16:21:47.008Z,33.8
2019-04-07T16:22:31.950Z,33.9
2019-04-07T16:23:28.321Z,34
2019-04-07T16:24:11.968Z,34.1
2019-04-07T16:25:04.748Z,34.3
2019-04-07T16:25:51.081Z,34.3
2019-04-07T16:26:47.918Z,34.4
2019-04-07T16:27:40.262Z,34.5
2019-04-07T16:28:24.345Z,34.6
2019-04-07T16:29:21.518Z,34.8
2019-04-07T16:30:02.980Z,34.8
2019-04-07T16:30:58.264Z,34.9
2019-04-07T16:31:42.330Z,35
2019-04-07T16:32:35.942Z,35.1
2019-04-07T16:33:22.747Z,35.2
2019-04-07T16:34:19.128Z,35.3
2019-04-07T16:35:02.303Z,35.4
2019-04-07T16:36:04.399Z,35.5
2019-04-07T16:36:43.843Z,35.7
2019-04-07T16:37:40.248Z,35.8
2019-04-07T16:38:23.957Z,35.9
2019-04-07T16:39:16.301Z,35.9
2019-04-07T16:40:11.752Z,36.1
2019-04-07T16:40:54.389Z,36.2
2019-04-07T16:41:46.956Z,36.3
2019-04-07T16:42:33.622Z,36.4
2019-04-07T16:43:35.510Z,36.5
2019-04-07T16:44:19.040Z,36.6
2019-04-07T16:45:02.897Z,36.8
2019-04-07T16:45:58.130Z,36.8
2019-04-07T16:46:43.710Z,36.9
2019-04-07T16:47:43.862Z,37.1
2019-04-07T16:48:22.658Z,37.1
2019-04-07T16:49:28.016Z,37.3
2019-04-07T16:50:03.141Z,37.4
2019-04-07T16:51:05.954Z,37.4
2019-04-07T16:51:44.820Z,37.6
2019-04-07T16:52:40.341Z,37.7
2019-04-07T16:53:22.069Z,37.8
2019-04-07T16:54:20.621Z,37.9
2019-04-07T16:55:04.759Z,38
2019-04-07T16:56:05.280Z,38.1
2019-04-07T16:56:44.326Z,38.3